Lloc web orientat als practicants d'activitats
Centenari de l'SMC: 100 anys mirant el cel

Dades de l'estació automàtica Baldomar

?
?

Resum diari

22:30 TU
Dades diàries de l'estació meteorològica
Temperatura mitjana 9.7 °C
Temperatura màxima 18.1 °C 14:06 TU
Temperatura mínima -0.6 °C 5:17 TU
Humitat relativa mitjana 67%
Precipitació acumulada 0.0 mm
Ratxa màxima del vent (2 m) 19.8 km/h - 186º 11:59 TU
Irradiació solar global 22.7 MJ/m2

El tram horari està expressat en Temps Universal (TU). Cal sumar una hora en horari d'hivern i dues en horari d'estiu per passar a l'hora oficial.

Baldomar

Metadades estació meteorològica
Municipi Artesa de Segre
Comarca Noguera
Altitud 366 m
Data alta 24.10.2006
Estat actual Operativa
Dades de període
Període
TU
TM
°C
TX
°C
TN
°C
HRM
%
PPT
mm
VVM (2 m)
km/h
DVM (2 m)
graus
VVX (2 m)
km/h
RS
W/m2
00:00 - 00:30 3.2 3.5 3.0 85 0.0 1.8 46 4.7 0
00:30 - 01:00 2.9 3.3 2.7 87 0.0 1.8 48 6.1 0
01:00 - 01:30 2.6 2.8 2.2 88 0.0 2.2 127 5.4 0
01:30 - 02:00 2.7 3.1 2.4 89 0.0 1.4 51 3.2 0
02:00 - 02:30 2.5 3.2 1.9 91 0.0 1.8 123 5.0 0
02:30 - 03:00 2.5 2.9 2.0 92 0.0 1.4 80 3.2 0
03:00 - 03:30 1.8 1.9 1.7 95 0.0 0.7 32 2.9 0
03:30 - 04:00 2.0 2.2 1.7 94 0.0 1.8 106 4.3 0
04:00 - 04:30 1.7 2.3 1.4 94 0.0 1.8 50 4.3 0
04:30 - 05:00 1.4 2.3 0.8 94 0.0 1.4 333 4.3 0
05:00 - 05:30 0.3 1.6 -0.6 95 0.0 3.2 68 5.8 2
05:30 - 06:00 0.7 1.3 0.0 96 0.0 1.4 50 4.7 36
06:00 - 06:30 2.4 3.7 1.5 90 0.0 0.4 8 2.2 146
06:30 - 07:00 4.0 4.2 3.7 87 0.0 2.2 175 5.0 231
07:00 - 07:30 4.9 5.7 4.1 87 0.0 2.2 246 5.0 328
07:30 - 08:00 6.7 7.6 5.6 80 0.0 1.8 275 5.0 429
08:00 - 08:30 8.8 9.7 7.6 64 0.0 4.3 181 9.0 526
08:30 - 09:00 10.6 11.3 9.7 57 0.0 3.2 205 9.0 617
09:00 - 09:30 11.9 12.5 11.3 53 0.0 3.6 182 10.8 690
09:30 - 10:00 13.0 13.7 11.8 49 0.0 5.4 177 12.2 770
10:00 - 10:30 13.9 14.9 13.2 46 0.0 4.3 180 12.2 830
10:30 - 11:00 14.5 15.0 13.8 44 0.0 7.6 177 16.6 874
11:00 - 11:30 14.8 15.3 14.2 42 0.0 10.4 164 18.0 847
11:30 - 12:00 15.4 15.8 15.0 38 0.0 10.8 176 19.8 916
12:00 - 12:30 15.9 16.6 15.4 32 0.0 7.6 208 18.7 875
12:30 - 13:00 16.3 16.9 15.9 29 0.0 6.8 239 16.9 853
13:00 - 13:30 17.2 17.7 16.5 27 0.0 7.2 225 17.6 808
13:30 - 14:00 17.2 17.8 16.4 28 0.0 7.6 229 18.0 754
14:00 - 14:30 17.1 18.1 16.6 32 0.0 10.1 201 19.4 609
14:30 - 15:00 16.8 17.5 16.2 30 0.0 8.3 214 16.6 551
15:00 - 15:30 16.9 17.5 16.2 27 0.0 7.6 217 16.6 411
15:30 - 16:00 16.0 16.1 15.8 28 0.0 6.5 218 11.5 204
16:00 - 16:30 15.5 15.8 15.2 31 0.0 6.8 209 13.3 112
16:30 - 17:00 14.9 15.1 14.8 36 0.0 5.4 199 10.1 85
17:00 - 17:30 14.4 14.8 14.0 54 0.0 6.1 175 11.9 65
17:30 - 18:00 13.8 14.0 13.5 64 0.0 5.0 169 11.9 43
18:00 - 18:30 13.1 13.5 12.7 68 0.0 3.6 183 7.9 9
18:30 - 19:00 12.4 12.7 11.9 73 0.0 3.2 133 8.6 0
19:00 - 19:30 11.7 12.0 11.4 77 0.0 2.2 114 5.0 0
19:30 - 20:00 11.3 11.6 10.9 80 0.0 3.2 133 4.7 0
20:00 - 20:30 10.8 11.0 10.6 83 0.0 2.2 69 5.0 0
20:30 - 21:00 10.4 10.7 10.3 85 0.0 2.9 57 5.0 0
21:00 - 21:30 10.4 10.9 9.8 84 0.0 2.9 41 5.0 0
21:30 - 22:00 10.5 10.7 10.2 82 0.0 2.2 21 4.0 0
22:00 - 22:30 9.6 10.1 9.0 87 0.0 1.4 64 4.7 0
22:30 - 23:00 9.6 9.9 9.2 87 0.0 1.4 257 3.6 0

Les dades en taronja només han passat un control de qualitat automàtic. Resta pendent la seva validació definitiva.